PWSweather.com
Personal Weather Stations
Station Observations
PWSTHORN2
Thornton, Nh Usa, Thornton, NH 03285

Thornton, Nh UsaThornton, NH 03285

Lat: 43.8870699, Lon: -71.6632763

Elevation: 640

Station Type: Ambient WS 2080

High Low Average
Temperature 61.9°F16.6°C 44.1°F6.7°C 51.5°F10.8°C
Dew Point 60.2°F15.7°C 42.4°F5.8°C 49.8°F9.9°C
Winds 18.3 mph 29.5 kmh Calm Calm 6.0 mph S9.7 kmh S
Wind Gusts 38.7 mph62.3 kmh 2.2 mph3.5 kmh 15.0 mph24.1 kmh
Humidity 94% 94% 94%
Pressure 28.58 in967.8 mb 27.93 in945.8 mb -
Precipitation 0.71 in18.0 mm - -
Hour Temp Dew Point Humidity Winds Wind Gusts Pressure Precip Precip Rate Daily Precip Total
12:00 AM 50.2°F10.1°C 48.5°F9.2°C 94% 3.8 mph E6.1 kmh E 11.4 mph18.3 kmh 28.64 in969.9 mb 0.09 in2.3 mm 0.00 in0.0 mm 0.09 in2.3 mm
12:05 AM 50.2°F10.1°C 48.5°F9.2°C 94% 3.8 mph E6.1 kmh E 11.4 mph18.3 kmh 28.64 in969.9 mb 0.08 in2.0 mm 0.00 in0.0 mm 0.09 in2.3 mm
12:10 AM 50.4°F10.2°C 48.7°F9.3°C 94% 5.4 mph ENE8.7 kmh ENE 24.4 mph39.3 kmh 28.62 in969.2 mb 0.07 in1.8 mm 0.00 in0.0 mm 0.09 in2.3 mm
12:15 AM 50.5°F10.3°C 48.9°F9.4°C 94% 3.8 mph NE6.1 kmh NE 24.4 mph39.3 kmh 28.62 in969.2 mb 0.07 in1.8 mm 0.00 in0.0 mm 0.01 in0.3 mm
12:20 AM 50.9°F10.5°C 49.2°F9.6°C 94% 3.8 mph NE6.1 kmh NE 12.1 mph19.5 kmh 28.62 in969.2 mb 0.06 in1.5 mm 0.00 in0.0 mm 0.01 in0.3 mm
12:25 AM 50.5°F10.3°C 48.9°F9.4°C 94% 3.8 mph NE6.1 kmh NE 11.4 mph18.3 kmh 28.62 in969.2 mb 0.06 in1.5 mm 0.00 in0.0 mm 0.01 in0.3 mm
12:30 AM 50.5°F10.3°C 48.9°F9.4°C 94% 3.8 mph NE6.1 kmh NE 11.4 mph18.3 kmh 28.61 in968.8 mb 0.05 in1.3 mm 0.00 in0.0 mm 0.01 in0.3 mm
12:35 AM 50.5°F10.3°C 48.9°F9.4°C 94% 3.1 mph NNE5.0 kmh NNE 9.8 mph15.8 kmh 28.60 in968.5 mb 0.05 in1.3 mm 0.00 in0.0 mm 0.02 in0.5 mm
12:40 AM 50.7°F10.4°C 49.1°F9.5°C 94% 9.8 mph N15.8 kmh N 31.1 mph50.1 kmh 28.60 in968.5 mb 0.05 in1.3 mm 0.00 in0.0 mm 0.02 in0.5 mm
12:45 AM 50.5°F10.3°C 48.9°F9.4°C 94% 5.4 mph N8.7 kmh N 31.1 mph50.1 kmh 28.59 in968.2 mb 0.06 in1.5 mm 0.12 in3.0 mm 0.04 in1.0 mm
12:50 AM 50.7°F10.4°C 49.1°F9.5°C 94% 1.6 mph N2.6 kmh N 13.0 mph20.9 kmh 28.59 in968.2 mb 0.06 in1.5 mm 0.00 in0.0 mm 0.04 in1.0 mm
12:55 AM 50.9°F10.5°C 49.2°F9.6°C 94% 3.1 mph N5.0 kmh N 8.3 mph13.4 kmh 28.58 in967.8 mb 0.06 in1.5 mm 0.00 in0.0 mm 0.05 in1.3 mm
01:00 AM 50.9°F10.5°C 49.2°F9.6°C 94% 1.6 mph N2.6 kmh N 5.4 mph8.7 kmh 28.58 in967.8 mb 0.05 in1.3 mm 0.00 in0.0 mm 0.05 in1.3 mm
01:05 AM 50.7°F10.4°C 49.1°F9.5°C 94% 3.8 mph N6.1 kmh N 6.0 mph9.7 kmh 28.56 in967.2 mb 0.06 in1.5 mm 0.12 in3.0 mm 0.06 in1.5 mm
01:10 AM 50.7°F10.4°C 49.1°F9.5°C 94% 3.8 mph N6.1 kmh N 7.6 mph12.2 kmh 28.55 in966.8 mb 0.06 in1.5 mm 0.00 in0.0 mm 0.06 in1.5 mm
01:15 AM 51.1°F10.6°C 49.4°F9.7°C 94% 5.4 mph N8.7 kmh N 11.4 mph18.3 kmh 28.55 in966.8 mb 0.06 in1.5 mm 0.00 in0.0 mm 0.07 in1.8 mm
01:20 AM 51.6°F10.9°C 50.0°F10.0°C 94% 6.0 mph NNW9.7 kmh NNW 11.4 mph18.3 kmh 28.55 in966.8 mb 0.06 in1.5 mm 0.00 in0.0 mm 0.07 in1.8 mm
01:25 AM 51.8°F11.0°C 50.1°F10.1°C 94% 6.0 mph N9.7 kmh N 17.4 mph28.0 kmh 28.53 in966.1 mb 0.07 in1.8 mm 0.12 in3.0 mm 0.08 in2.0 mm
01:30 AM 51.8°F11.0°C 50.1°F10.1°C 94% 3.8 mph N6.1 kmh N 17.4 mph28.0 kmh 28.53 in966.1 mb 0.07 in1.8 mm 0.00 in0.0 mm 0.08 in2.0 mm
01:35 AM 51.6°F10.9°C 50.0°F10.0°C 94% 4.5 mph N7.2 kmh N 10.7 mph17.2 kmh 28.52 in965.8 mb 0.07 in1.8 mm 0.00 in0.0 mm 0.09 in2.3 mm
01:40 AM 51.6°F10.9°C 50.0°F10.0°C 94% 3.1 mph NNE5.0 kmh NNE 12.1 mph19.5 kmh 28.52 in965.8 mb 0.08 in2.0 mm 0.12 in3.0 mm 0.11 in2.8 mm
01:45 AM 51.8°F11.0°C 50.1°F10.1°C 94% 3.1 mph NE5.0 kmh NE 12.1 mph19.5 kmh 28.50 in965.1 mb 0.07 in1.8 mm 0.00 in0.0 mm 0.11 in2.8 mm
01:50 AM 52.2°F11.2°C 50.5°F10.3°C 94% 3.8 mph NE6.1 kmh NE 6.9 mph11.1 kmh 28.50 in965.1 mb 0.07 in1.8 mm 0.00 in0.0 mm 0.11 in2.8 mm
01:55 AM 51.8°F11.0°C 50.1°F10.1°C 94% 6.0 mph NE9.7 kmh NE 10.7 mph17.2 kmh 28.49 in964.8 mb 0.07 in1.8 mm 0.00 in0.0 mm 0.12 in3.0 mm
02:00 AM 51.8°F11.0°C 50.1°F10.1°C 94% 0.7 mph NE1.1 kmh NE 10.7 mph17.2 kmh 28.48 in964.4 mb 0.08 in2.0 mm 0.01 in0.3 mm 0.13 in3.3 mm
02:05 AM 51.8°F11.0°C 50.1°F10.1°C 94% 0.7 mph NE1.1 kmh NE 10.7 mph17.2 kmh 28.47 in964.1 mb 0.07 in1.8 mm 0.00 in0.0 mm 0.13 in3.3 mm
02:10 AM 51.4°F10.8°C 49.8°F9.9°C 94% 6.0 mph ENE9.7 kmh ENE 8.3 mph13.4 kmh 28.46 in963.8 mb 0.09 in2.3 mm 0.24 in6.1 mm 0.15 in3.8 mm
02:15 AM 51.4°F10.8°C 49.8°F9.9°C 94% 5.4 mph E8.7 kmh E 8.3 mph13.4 kmh 28.46 in963.8 mb 0.08 in2.0 mm 0.00 in0.0 mm 0.15 in3.8 mm
02:20 AM 51.1°F10.6°C 49.4°F9.7°C 94% 3.1 mph E5.0 kmh E 10.7 mph17.2 kmh 28.45 in963.4 mb 0.09 in2.3 mm 0.12 in3.0 mm 0.17 in4.3 mm
02:25 AM 51.3°F10.7°C 49.6°F9.8°C 94% 1.6 mph E2.6 kmh E 11.4 mph18.3 kmh 28.43 in962.8 mb 0.08 in2.0 mm 0.00 in0.0 mm 0.17 in4.3 mm
02:30 AM 51.6°F10.9°C 50.0°F10.0°C 94% 1.6 mph N2.6 kmh N 11.4 mph18.3 kmh 28.41 in962.1 mb 0.09 in2.3 mm 0.12 in3.0 mm 0.18 in4.6 mm
02:35 AM 51.8°F11.0°C 50.1°F10.1°C 94% 6.0 mph NW9.7 kmh NW 8.3 mph13.4 kmh 28.41 in962.1 mb 0.08 in2.0 mm 0.00 in0.0 mm 0.18 in4.6 mm
02:40 AM 52.3°F11.3°C 50.7°F10.4°C 94% 3.1 mph NNW5.0 kmh NNW 19.0 mph30.6 kmh 28.42 in962.4 mb 0.08 in2.0 mm 0.00 in0.0 mm 0.19 in4.8 mm
02:45 AM 52.9°F11.6°C 51.2°F10.7°C 94% 6.9 mph N11.1 kmh N 25.9 mph41.7 kmh 28.40 in961.7 mb 0.09 in2.3 mm 0.12 in3.0 mm 0.20 in5.1 mm
02:50 AM 52.9°F11.6°C 51.2°F10.7°C 94% 4.5 mph NE7.2 kmh NE 25.9 mph41.7 kmh 28.40 in961.7 mb 0.11 in2.8 mm 0.24 in6.1 mm 0.21 in5.3 mm
02:55 AM 52.9°F11.6°C 51.2°F10.7°C 94% 2.2 mph NNE3.5 kmh NNE 13.0 mph20.9 kmh 28.38 in961.1 mb 0.09 in2.3 mm 0.00 in0.0 mm 0.21 in5.3 mm
03:00 AM 52.9°F11.6°C 51.2°F10.7°C 94% 5.4 mph N8.7 kmh N 22.1 mph35.6 kmh 28.36 in960.4 mb 0.09 in2.3 mm 0.00 in0.0 mm 0.22 in5.6 mm
03:05 AM 52.7°F11.5°C 51.0°F10.6°C 94% 13.0 mph NW20.9 kmh NW 22.1 mph35.6 kmh 28.34 in959.7 mb 0.11 in2.8 mm 0.24 in6.1 mm 0.24 in6.1 mm
03:10 AM 52.7°F11.5°C 51.0°F10.6°C 94% 3.8 mph NW6.1 kmh NW 22.1 mph35.6 kmh 28.35 in960.0 mb 0.11 in2.8 mm 0.00 in0.0 mm 0.26 in6.6 mm
03:15 AM 52.5°F11.4°C 50.8°F10.4°C 94% 8.3 mph N13.4 kmh N 18.3 mph29.5 kmh 28.34 in959.7 mb 0.12 in3.0 mm 0.12 in3.0 mm 0.27 in6.9 mm
03:20 AM 52.0°F11.1°C 50.3°F10.2°C 94% 13.0 mph N20.9 kmh N 17.4 mph28.0 kmh 28.35 in960.0 mb 0.14 in3.6 mm 0.24 in6.1 mm 0.31 in7.9 mm
03:25 AM 51.6°F10.9°C 50.0°F10.0°C 94% 7.6 mph N12.2 kmh N 21.3 mph34.3 kmh 28.35 in960.0 mb 0.17 in4.3 mm 0.36 in9.1 mm 0.33 in8.4 mm
03:30 AM 51.8°F11.0°C 50.1°F10.1°C 94% 5.4 mph NNW8.7 kmh NNW 21.3 mph34.3 kmh 28.35 in960.0 mb 0.19 in4.8 mm 0.24 in6.1 mm 0.37 in9.4 mm
03:35 AM 51.6°F10.9°C 50.0°F10.0°C 94% 14.5 mph W23.3 kmh W 23.5 mph37.8 kmh 28.32 in959.0 mb 0.22 in5.6 mm 0.36 in9.1 mm 0.40 in10.2 mm
03:40 AM 51.4°F10.8°C 49.8°F9.9°C 94% 3.1 mph WNW5.0 kmh WNW 23.5 mph37.8 kmh 28.32 in959.0 mb 0.22 in5.6 mm 0.00 in0.0 mm 0.41 in10.4 mm
03:45 AM 51.6°F10.9°C 50.0°F10.0°C 94% 5.4 mph NW8.7 kmh NW 23.5 mph37.8 kmh 28.30 in958.3 mb 0.24 in6.1 mm 0.24 in6.1 mm 0.44 in11.2 mm
03:50 AM 51.6°F10.9°C 50.0°F10.0°C 94% 5.4 mph N8.7 kmh N 22.1 mph35.6 kmh 28.29 in958.0 mb 0.24 in6.1 mm 0.00 in0.0 mm 0.45 in11.4 mm
03:55 AM 51.6°F10.9°C 50.0°F10.0°C 94% 5.4 mph NNE8.7 kmh NNE 22.1 mph35.6 kmh 28.27 in957.3 mb 0.25 in6.4 mm 0.12 in3.0 mm 0.46 in11.7 mm
04:00 AM 51.6°F10.9°C 50.0°F10.0°C 94% 5.4 mph N8.7 kmh N 15.2 mph24.5 kmh 28.27 in957.3 mb 0.24 in6.1 mm 0.00 in0.0 mm 0.46 in11.7 mm
04:05 AM 51.6°F10.9°C 50.0°F10.0°C 94% 5.4 mph N8.7 kmh N 15.2 mph24.5 kmh 28.25 in956.7 mb 0.22 in5.6 mm 0.00 in0.0 mm 0.46 in11.7 mm
04:10 AM 51.4°F10.8°C 49.8°F9.9°C 94% 3.8 mph N6.1 kmh N 13.0 mph20.9 kmh 28.25 in956.7 mb 0.21 in5.3 mm 0.00 in0.0 mm 0.47 in11.9 mm
04:15 AM 51.6°F10.9°C 50.0°F10.0°C 94% 6.9 mph NW11.1 kmh NW 15.2 mph24.5 kmh 28.23 in956.0 mb 0.20 in5.1 mm 0.00 in0.0 mm 0.47 in11.9 mm
04:20 AM 51.6°F10.9°C 50.0°F10.0°C 94% 12.1 mph NW19.5 kmh NW 18.3 mph29.5 kmh 28.21 in955.3 mb 0.17 in4.3 mm 0.00 in0.0 mm 0.47 in11.9 mm
04:25 AM 51.6°F10.9°C 50.0°F10.0°C 94% 3.1 mph NW5.0 kmh NW 18.3 mph29.5 kmh 28.20 in955.0 mb 0.13 in3.3 mm 0.00 in0.0 mm 0.47 in11.9 mm
04:30 AM 51.6°F10.9°C 50.0°F10.0°C 94% 1.6 mph W2.6 kmh W 18.3 mph29.5 kmh 28.19 in954.6 mb 0.11 in2.8 mm 0.00 in0.0 mm 0.47 in11.9 mm
04:35 AM 51.6°F10.9°C 50.0°F10.0°C 94% 4.5 mph WSW7.2 kmh WSW 7.6 mph12.2 kmh 28.17 in953.9 mb 0.07 in1.8 mm 0.00 in0.0 mm 0.47 in11.9 mm
04:40 AM 52.3°F11.3°C 50.7°F10.4°C 94% 11.4 mph S18.3 kmh S 25.9 mph41.7 kmh 28.16 in953.6 mb 0.05 in1.3 mm 0.00 in0.0 mm 0.47 in11.9 mm
04:45 AM 52.5°F11.4°C 50.8°F10.4°C 94% 5.4 mph S8.7 kmh S 25.9 mph41.7 kmh 28.15 in953.3 mb 0.04 in1.0 mm 0.00 in0.0 mm 0.47 in11.9 mm
04:50 AM 52.7°F11.5°C 51.0°F10.6°C 94% 7.6 mph WSW12.2 kmh WSW 30.4 mph48.9 kmh 28.15 in953.3 mb 0.04 in1.0 mm 0.00 in0.0 mm 0.48 in12.2 mm
04:55 AM 52.7°F11.5°C 51.0°F10.6°C 94% 12.1 mph WNW19.5 kmh WNW 30.4 mph48.9 kmh 28.14 in952.9 mb 0.02 in0.5 mm 0.00 in0.0 mm 0.48 in12.2 mm
05:00 AM 52.7°F11.5°C 51.0°F10.6°C 94% 9.8 mph NW15.8 kmh NW 32.0 mph51.5 kmh 28.12 in952.3 mb 0.02 in0.5 mm 0.00 in0.0 mm 0.48 in12.2 mm
05:05 AM 52.7°F11.5°C 51.0°F10.6°C 94% 18.3 mph NW29.5 kmh NW 32.0 mph51.5 kmh 28.13 in952.6 mb 0.02 in0.5 mm 0.00 in0.0 mm 0.48 in12.2 mm
05:10 AM 52.5°F11.4°C 50.8°F10.4°C 94% 8.3 mph NW13.4 kmh NW 30.4 mph48.9 kmh 28.12 in952.3 mb 0.02 in0.5 mm 0.00 in0.0 mm 0.50 in12.7 mm
05:15 AM 52.2°F11.2°C 50.5°F10.3°C 94% 16.8 mph NW27.0 kmh NW 30.4 mph48.9 kmh 28.11 in951.9 mb 0.02 in0.5 mm 0.00 in0.0 mm 0.50 in12.7 mm
05:20 AM 52.5°F11.4°C 50.8°F10.4°C 94% 9.8 mph NW15.8 kmh NW 38.7 mph62.3 kmh 28.10 in951.6 mb 0.02 in0.5 mm 0.00 in0.0 mm 0.50 in12.7 mm
05:25 AM 52.7°F11.5°C 51.0°F10.6°C 94% 6.0 mph WNW9.7 kmh WNW 38.7 mph62.3 kmh 28.10 in951.6 mb 0.04 in1.0 mm 0.24 in6.1 mm 0.51 in13.0 mm
05:30 AM 52.5°F11.4°C 50.8°F10.4°C 94% 8.3 mph W13.4 kmh W 31.1 mph50.1 kmh 28.09 in951.2 mb 0.04 in1.0 mm 0.00 in0.0 mm 0.51 in13.0 mm
05:35 AM 52.7°F11.5°C 51.0°F10.6°C 94% 14.5 mph W23.3 kmh W 25.9 mph41.7 kmh 28.09 in951.2 mb 0.04 in1.0 mm 0.00 in0.0 mm 0.51 in13.0 mm
05:40 AM 52.7°F11.5°C 51.0°F10.6°C 94% 11.4 mph W18.3 kmh W 22.1 mph35.6 kmh 28.09 in951.2 mb 0.04 in1.0 mm 0.00 in0.0 mm 0.51 in13.0 mm
05:45 AM 52.7°F11.5°C 51.0°F10.6°C 94% 8.3 mph NW13.4 kmh NW 27.3 mph43.9 kmh 28.08 in950.9 mb 0.04 in1.0 mm 0.00 in0.0 mm 0.51 in13.0 mm
05:50 AM 52.7°F11.5°C 51.0°F10.6°C 94% 13.6 mph NW21.9 kmh NW 34.9 mph56.2 kmh 28.08 in950.9 mb 0.02 in0.5 mm 0.00 in0.0 mm 0.51 in13.0 mm
05:55 AM 52.7°F11.5°C 51.0°F10.6°C 94% 1.6 mph NW2.6 kmh NW 34.9 mph56.2 kmh 28.07 in950.6 mb 0.02 in0.5 mm 0.00 in0.0 mm 0.51 in13.0 mm
06:00 AM 52.7°F11.5°C 51.0°F10.6°C 94% 6.9 mph NW11.1 kmh NW 16.8 mph27.0 kmh 28.07 in950.6 mb 0.02 in0.5 mm 0.00 in0.0 mm 0.51 in13.0 mm
06:05 AM 52.7°F11.5°C 51.0°F10.6°C 94% 6.9 mph NNW11.1 kmh NNW 16.8 mph27.0 kmh 28.06 in950.2 mb 0.02 in0.5 mm 0.00 in0.0 mm 0.51 in13.0 mm
06:10 AM 53.1°F11.7°C 51.4°F10.8°C 94% 9.2 mph NNW14.8 kmh NNW 24.4 mph39.3 kmh 28.06 in950.2 mb 0.01 in0.3 mm 0.00 in0.0 mm 0.51 in13.0 mm
06:15 AM 53.2°F11.8°C 51.6°F10.9°C 94% 3.8 mph NW6.1 kmh NW 24.4 mph39.3 kmh 28.05 in949.9 mb 0.01 in0.3 mm 0.00 in0.0 mm 0.51 in13.0 mm
06:20 AM 53.4°F11.9°C 51.7°F10.9°C 94% 3.8 mph WNW6.1 kmh WNW 22.8 mph36.7 kmh 28.05 in949.9 mb 0.01 in0.3 mm 0.00 in0.0 mm 0.51 in13.0 mm
06:25 AM 53.6°F12.0°C 51.9°F11.1°C 94% 8.3 mph NW13.4 kmh NW 22.8 mph36.7 kmh 28.05 in949.9 mb 0.00 in0.0 mm 0.00 in0.0 mm 0.51 in13.0 mm
06:30 AM 53.4°F11.9°C 51.7°F10.9°C 94% 8.3 mph W13.4 kmh W 14.5 mph23.3 kmh 28.04 in949.5 mb 0.00 in0.0 mm 0.00 in0.0 mm 0.51 in13.0 mm
06:35 AM 53.4°F11.9°C 51.7°F10.9°C 94% 12.1 mph W19.5 kmh W 17.4 mph28.0 kmh 28.04 in949.5 mb 0.00 in0.0 mm 0.00 in0.0 mm 0.51 in13.0 mm
06:40 AM 53.6°F12.0°C 51.9°F11.1°C 94% 8.3 mph WNW13.4 kmh WNW 22.1 mph35.6 kmh 28.02 in948.9 mb 0.00 in0.0 mm 0.00 in0.0 mm 0.51 in13.0 mm
06:45 AM 53.4°F11.9°C 51.7°F10.9°C 94% 8.3 mph NW13.4 kmh NW 22.8 mph36.7 kmh 28.03 in949.2 mb 0.00 in0.0 mm 0.00 in0.0 mm 0.51 in13.0 mm
06:50 AM 53.4°F11.9°C 51.7°F10.9°C 94% 3.8 mph N6.1 kmh N 22.8 mph36.7 kmh 28.03 in949.2 mb 0.00 in0.0 mm 0.00 in0.0 mm 0.51 in13.0 mm
06:55 AM 53.4°F11.9°C 51.7°F10.9°C 94% 13.0 mph NE20.9 kmh NE 22.8 mph36.7 kmh 28.01 in948.5 mb 0.00 in0.0 mm 0.00 in0.0 mm 0.51 in13.0 mm
07:00 AM 53.6°F12.0°C 51.9°F11.1°C 94% 8.3 mph ENE13.4 kmh ENE 22.8 mph36.7 kmh 28.02 in948.9 mb 0.00 in0.0 mm 0.00 in0.0 mm 0.51 in13.0 mm
07:05 AM 53.6°F12.0°C 51.9°F11.1°C 94% 7.6 mph NE12.2 kmh NE 22.8 mph36.7 kmh 28.01 in948.5 mb 0.00 in0.0 mm 0.00 in0.0 mm 0.51 in13.0 mm
07:10 AM 54.1°F12.3°C 52.5°F11.4°C 94% 1.6 mph WNW2.6 kmh WNW 25.1 mph40.4 kmh 28.02 in948.9 mb 0.00 in0.0 mm 0.00 in0.0 mm 0.51 in13.0 mm
07:15 AM 54.1°F12.3°C 52.5°F11.4°C 94% 4.5 mph WSW7.2 kmh WSW 25.1 mph40.4 kmh 28.01 in948.5 mb 0.00 in0.0 mm 0.00 in0.0 mm 0.51 in13.0 mm
07:20 AM 54.3°F12.4°C 52.6°F11.4°C 94% 6.0 mph WSW9.7 kmh WSW 15.9 mph25.6 kmh 28.00 in948.2 mb 0.00 in0.0 mm 0.00 in0.0 mm 0.51 in13.0 mm
07:25 AM 54.7°F12.6°C 53.0°F11.7°C 94% 6.9 mph SW11.1 kmh SW 19.0 mph30.6 kmh 28.01 in948.5 mb 0.00 in0.0 mm 0.00 in0.0 mm 0.51 in13.0 mm
07:30 AM 55.0°F12.8°C 53.4°F11.9°C 94% 9.2 mph SW14.8 kmh SW 19.0 mph30.6 kmh 28.01 in948.5 mb 0.00 in0.0 mm 0.00 in0.0 mm 0.51 in13.0 mm
07:35 AM 55.2°F12.9°C 53.5°F11.9°C 94% 11.4 mph SW18.3 kmh SW 22.8 mph36.7 kmh 28.00 in948.2 mb 0.00 in0.0 mm 0.00 in0.0 mm 0.51 in13.0 mm
07:40 AM 55.2°F12.9°C 53.5°F11.9°C 94% 6.0 mph WSW9.7 kmh WSW 22.8 mph36.7 kmh 28.00 in948.2 mb 0.00 in0.0 mm 0.00 in0.0 mm 0.51 in13.0 mm
07:45 AM 55.2°F12.9°C 53.5°F11.9°C 94% 9.8 mph SW15.8 kmh SW 22.8 mph36.7 kmh 28.00 in948.2 mb 0.00 in0.0 mm 0.00 in0.0 mm 0.51 in13.0 mm
07:50 AM 55.2°F12.9°C 53.5°F11.9°C 94% 7.6 mph SW12.2 kmh SW 14.5 mph23.3 kmh 28.00 in948.2 mb 0.00 in0.0 mm 0.00 in0.0 mm 0.51 in13.0 mm
07:55 AM 55.0°F12.8°C 53.4°F11.9°C 94% 3.8 mph SW6.1 kmh SW 13.0 mph20.9 kmh 28.00 in948.2 mb 0.00 in0.0 mm 0.00 in0.0 mm 0.51 in13.0 mm
08:00 AM 55.0°F12.8°C 53.4°F11.9°C 94% 1.6 mph WSW2.6 kmh WSW 13.6 mph21.9 kmh 28.00 in948.2 mb 0.00 in0.0 mm 0.00 in0.0 mm 0.51 in13.0 mm
08:05 AM 55.2°F12.9°C 53.5°F11.9°C 94% 5.4 mph W8.7 kmh W 13.6 mph21.9 kmh 27.99 in947.9 mb 0.00 in0.0 mm 0.00 in0.0 mm 0.51 in13.0 mm
08:10 AM 55.2°F12.9°C 53.5°F11.9°C 94% 7.6 mph WSW12.2 kmh WSW 14.5 mph23.3 kmh 27.98 in947.5 mb 0.00 in0.0 mm 0.00 in0.0 mm 0.51 in13.0 mm
08:15 AM 55.6°F13.1°C 53.9°F12.2°C 94% 9.8 mph W15.8 kmh W 14.5 mph23.3 kmh 27.99 in947.9 mb 0.00 in0.0 mm 0.00 in0.0 mm 0.51 in13.0 mm
08:20 AM 55.4°F13.0°C 53.7°F12.1°C 94% 6.0 mph NW9.7 kmh NW 14.5 mph23.3 kmh 27.99 in947.9 mb 0.00 in0.0 mm 0.00 in0.0 mm 0.51 in13.0 mm
08:25 AM 55.4°F13.0°C 53.7°F12.1°C 94% 4.5 mph NW7.2 kmh NW 16.8 mph27.0 kmh 27.99 in947.9 mb 0.00 in0.0 mm 0.00 in0.0 mm 0.51 in13.0 mm
08:30 AM 55.4°F13.0°C 53.7°F12.1°C 94% 3.8 mph NW6.1 kmh NW 16.8 mph27.0 kmh 27.99 in947.9 mb 0.00 in0.0 mm 0.00 in0.0 mm 0.51 in13.0 mm
08:35 AM 55.6°F13.1°C 53.9°F12.2°C 94% 6.0 mph NW9.7 kmh NW 14.5 mph23.3 kmh 27.99 in947.9 mb 0.00 in0.0 mm 0.00 in0.0 mm 0.51 in13.0 mm
08:40 AM 55.6°F13.1°C 53.9°F12.2°C 94% 5.4 mph NW8.7 kmh NW 19.0 mph30.6 kmh 27.98 in947.5 mb 0.00 in0.0 mm 0.00 in0.0 mm 0.51 in13.0 mm
08:45 AM 55.8°F13.2°C 54.1°F12.3°C 94% 3.8 mph NW6.1 kmh NW 19.0 mph30.6 kmh 27.98 in947.5 mb 0.00 in0.0 mm 0.00 in0.0 mm 0.51 in13.0 mm
08:50 AM 55.9°F13.3°C 54.2°F12.3°C 94% 5.4 mph NW8.7 kmh NW 14.5 mph23.3 kmh 27.97 in947.2 mb 0.00 in0.0 mm 0.00 in0.0 mm 0.51 in13.0 mm
08:55 AM 56.1°F13.4°C 54.4°F12.4°C 94% 8.3 mph NW13.4 kmh NW 22.8 mph36.7 kmh 27.97 in947.2 mb 0.00 in0.0 mm 0.00 in0.0 mm 0.51 in13.0 mm
09:00 AM 56.1°F13.4°C 54.4°F12.4°C 94% 3.8 mph WSW6.1 kmh WSW 22.8 mph36.7 kmh 27.96 in946.8 mb 0.00 in0.0 mm 0.00 in0.0 mm 0.51 in13.0 mm
09:05 AM 56.3°F13.5°C 54.6°F12.6°C 94% 4.5 mph S7.2 kmh S 16.8 mph27.0 kmh 27.96 in946.8 mb 0.00 in0.0 mm 0.00 in0.0 mm 0.51 in13.0 mm
09:10 AM 56.5°F13.6°C 54.8°F12.7°C 94% 4.5 mph S7.2 kmh S 16.8 mph27.0 kmh 27.96 in946.8 mb 0.00 in0.0 mm 0.00 in0.0 mm 0.51 in13.0 mm
09:15 AM 56.7°F13.7°C 55.0°F12.8°C 94% 2.2 mph S3.5 kmh S 15.2 mph24.5 kmh 27.96 in946.8 mb 0.00 in0.0 mm 0.00 in0.0 mm 0.51 in13.0 mm
09:20 AM 56.7°F13.7°C 55.0°F12.8°C 94% 2.2 mph S3.5 kmh S 15.2 mph24.5 kmh 27.95 in946.5 mb 0.00 in0.0 mm 0.00 in0.0 mm 0.51 in13.0 mm
09:25 AM 57.0°F13.9°C 55.3°F12.9°C 94% 2.2 mph S3.5 kmh S 11.4 mph18.3 kmh 27.95 in946.5 mb 0.00 in0.0 mm 0.00 in0.0 mm 0.51 in13.0 mm
09:30 AM 57.4°F14.1°C 55.7°F13.2°C 94% 2.2 mph S3.5 kmh S 11.4 mph18.3 kmh 27.96 in946.8 mb 0.00 in0.0 mm 0.00 in0.0 mm 0.51 in13.0 mm
09:35 AM 57.7°F14.3°C 56.0°F13.3°C 94% 3.1 mph S5.0 kmh S 9.8 mph15.8 kmh 27.96 in946.8 mb 0.00 in0.0 mm 0.00 in0.0 mm 0.51 in13.0 mm
09:40 AM 58.1°F14.5°C 56.4°F13.6°C 94% 3.8 mph S6.1 kmh S 9.8 mph15.8 kmh 27.96 in946.8 mb 0.00 in0.0 mm 0.00 in0.0 mm 0.51 in13.0 mm
09:45 AM 58.1°F14.5°C 56.4°F13.6°C 94% 6.0 mph S9.7 kmh S 22.1 mph35.6 kmh 27.95 in946.5 mb 0.00 in0.0 mm 0.00 in0.0 mm 0.51 in13.0 mm
09:50 AM 58.1°F14.5°C 56.4°F13.6°C 94% 4.5 mph S7.2 kmh S 22.1 mph35.6 kmh 27.95 in946.5 mb 0.00 in0.0 mm 0.00 in0.0 mm 0.51 in13.0 mm
09:55 AM 58.8°F14.9°C 57.1°F13.9°C 94% 3.1 mph S5.0 kmh S 14.5 mph23.3 kmh 27.95 in946.5 mb 0.00 in0.0 mm 0.00 in0.0 mm 0.51 in13.0 mm
10:00 AM 60.3°F15.7°C 58.5°F14.7°C 94% 6.0 mph S9.7 kmh S 11.4 mph18.3 kmh 27.96 in946.8 mb 0.00 in0.0 mm 0.00 in0.0 mm 0.51 in13.0 mm
10:05 AM 61.2°F16.2°C 59.4°F15.2°C 94% 6.9 mph S11.1 kmh S 8.3 mph13.4 kmh 27.95 in946.5 mb 0.00 in0.0 mm 0.00 in0.0 mm 0.51 in13.0 mm
10:10 AM 61.9°F16.6°C 60.2°F15.7°C 94% 4.5 mph S7.2 kmh S 9.2 mph14.8 kmh 27.95 in946.5 mb 0.00 in0.0 mm 0.00 in0.0 mm 0.51 in13.0 mm
10:15 AM 61.2°F16.2°C 59.4°F15.2°C 94% 6.9 mph S11.1 kmh S 13.6 mph21.9 kmh 27.95 in946.5 mb 0.00 in0.0 mm 0.00 in0.0 mm 0.51 in13.0 mm
10:20 AM 60.6°F15.9°C 58.9°F14.9°C 94% 3.1 mph S5.0 kmh S 13.6 mph21.9 kmh 27.94 in946.2 mb 0.00 in0.0 mm 0.00 in0.0 mm 0.51 in13.0 mm
10:25 AM 60.4°F15.8°C 58.7°F14.8°C 94% 3.8 mph S6.1 kmh S 8.3 mph13.4 kmh 27.93 in945.8 mb 0.00 in0.0 mm 0.00 in0.0 mm 0.51 in13.0 mm
10:30 AM 59.7°F15.4°C 58.0°F14.4°C 94% 3.8 mph S6.1 kmh S 9.8 mph15.8 kmh 27.94 in946.2 mb 0.00 in0.0 mm 0.00 in0.0 mm 0.51 in13.0 mm
10:35 AM 59.7°F15.4°C 58.0°F14.4°C 94% 3.8 mph S6.1 kmh S 9.8 mph15.8 kmh 27.94 in946.2 mb 0.00 in0.0 mm 0.00 in0.0 mm 0.51 in13.0 mm
10:40 AM 60.1°F15.6°C 58.4°F14.7°C 94% 2.2 mph S3.5 kmh S 7.6 mph12.2 kmh 27.94 in946.2 mb 0.00 in0.0 mm 0.00 in0.0 mm 0.51 in13.0 mm
10:45 AM 60.3°F15.7°C 58.5°F14.7°C 94% 2.2 mph S3.5 kmh S 6.9 mph11.1 kmh 27.94 in946.2 mb 0.00 in0.0 mm 0.00 in0.0 mm 0.51 in13.0 mm
10:50 AM 60.3°F15.7°C 58.5°F14.7°C 94% 3.1 mph S5.0 kmh S 7.6 mph12.2 kmh 27.95 in946.5 mb 0.00 in0.0 mm 0.00 in0.0 mm 0.51 in13.0 mm
10:55 AM 60.1°F15.6°C 58.4°F14.7°C 94% 2.2 mph S3.5 kmh S 8.3 mph13.4 kmh 27.94 in946.2 mb 0.00 in0.0 mm 0.00 in0.0 mm 0.51 in13.0 mm
11:00 AM 59.7°F15.4°C 58.0°F14.4°C 94% 1.6 mph S2.6 kmh S 8.3 mph13.4 kmh 27.95 in946.5 mb 0.00 in0.0 mm 0.00 in0.0 mm 0.51 in13.0 mm
11:05 AM 59.7°F15.4°C 58.0°F14.4°C 94% 4.5 mph S7.2 kmh S 8.3 mph13.4 kmh 27.95 in946.5 mb 0.00 in0.0 mm 0.00 in0.0 mm 0.51 in13.0 mm
11:10 AM 59.7°F15.4°C 58.0°F14.4°C 94% 3.8 mph S6.1 kmh S 7.6 mph12.2 kmh 27.95 in946.5 mb 0.00 in0.0 mm 0.00 in0.0 mm 0.51 in13.0 mm
11:15 AM 59.7°F15.4°C 58.0°F14.4°C 94% 2.2 mph S3.5 kmh S 6.9 mph11.1 kmh 27.96 in946.8 mb 0.00 in0.0 mm 0.00 in0.0 mm 0.51 in13.0 mm
11:20 AM 59.7°F15.4°C 58.0°F14.4°C 94% 3.1 mph S5.0 kmh S 7.6 mph12.2 kmh 27.96 in946.8 mb 0.00 in0.0 mm 0.00 in0.0 mm 0.51 in13.0 mm
11:25 AM 59.5°F15.3°C 57.8°F14.3°C 94% 3.1 mph S5.0 kmh S 7.6 mph12.2 kmh 27.96 in946.8 mb 0.00 in0.0 mm 0.00 in0.0 mm 0.51 in13.0 mm
11:30 AM 58.1°F14.5°C 56.4°F13.6°C 94% 5.4 mph S8.7 kmh S 13.6 mph21.9 kmh 27.96 in946.8 mb 0.00 in0.0 mm 0.00 in0.0 mm 0.51 in13.0 mm
11:35 AM 56.5°F13.6°C 54.8°F12.7°C 94% 3.1 mph S5.0 kmh S 13.6 mph21.9 kmh 27.97 in947.2 mb 0.00 in0.0 mm 0.00 in0.0 mm 0.51 in13.0 mm
11:40 AM 55.4°F13.0°C 53.7°F12.1°C 94% 6.0 mph S9.7 kmh S 9.8 mph15.8 kmh 27.98 in947.5 mb 0.01 in0.3 mm 0.12 in3.0 mm 0.52 in13.2 mm
11:45 AM 54.7°F12.6°C 53.0°F11.7°C 94% 3.8 mph S6.1 kmh S 8.3 mph13.4 kmh 27.98 in947.5 mb 0.01 in0.3 mm 0.00 in0.0 mm 0.52 in13.2 mm
11:50 AM 54.1°F12.3°C 52.5°F11.4°C 94% 0.7 mph S1.1 kmh S 8.3 mph13.4 kmh 27.98 in947.5 mb 0.01 in0.3 mm 0.00 in0.0 mm 0.52 in13.2 mm
11:55 AM 54.0°F12.2°C 52.3°F11.3°C 94% 0.7 mph S1.1 kmh S 6.9 mph11.1 kmh 27.98 in947.5 mb 0.01 in0.3 mm 0.00 in0.0 mm 0.52 in13.2 mm
12:00 PM 53.8°F12.1°C 52.1°F11.2°C 94% 3.1 mph S5.0 kmh S 6.0 mph9.7 kmh 27.98 in947.5 mb 0.01 in0.3 mm 0.00 in0.0 mm 0.52 in13.2 mm
12:05 PM 54.0°F12.2°C 52.3°F11.3°C 94% Calm Calm 6.0 mph9.7 kmh 27.98 in947.5 mb 0.01 in0.3 mm 0.00 in0.0 mm 0.52 in13.2 mm
12:10 PM 54.0°F12.2°C 52.3°F11.3°C 94% Calm Calm 3.8 mph6.1 kmh 27.99 in947.9 mb 0.01 in0.3 mm 0.00 in0.0 mm 0.52 in13.2 mm
12:15 PM 54.3°F12.4°C 52.6°F11.4°C 94% 3.1 mph S5.0 kmh S 4.5 mph7.2 kmh 27.99 in947.9 mb 0.01 in0.3 mm 0.00 in0.0 mm 0.52 in13.2 mm
12:20 PM 54.3°F12.4°C 52.6°F11.4°C 94% 0.7 mph S1.1 kmh S 4.5 mph7.2 kmh 28.00 in948.2 mb 0.01 in0.3 mm 0.00 in0.0 mm 0.52 in13.2 mm
12:25 PM 54.5°F12.5°C 52.8°F11.6°C 94% 0.7 mph S1.1 kmh S 4.5 mph7.2 kmh 28.00 in948.2 mb 0.01 in0.3 mm 0.00 in0.0 mm 0.52 in13.2 mm
12:30 PM 54.9°F12.7°C 53.2°F11.8°C 94% 0.7 mph S1.1 kmh S 3.8 mph6.1 kmh 28.00 in948.2 mb 0.01 in0.3 mm 0.00 in0.0 mm 0.52 in13.2 mm
12:35 PM 55.0°F12.8°C 53.4°F11.9°C 94% 0.7 mph S1.1 kmh S 2.2 mph3.5 kmh 28.00 in948.2 mb 0.01 in0.3 mm 0.00 in0.0 mm 0.52 in13.2 mm
12:40 PM 55.2°F12.9°C 53.5°F11.9°C 94% 1.6 mph S2.6 kmh S 4.5 mph7.2 kmh 28.01 in948.5 mb 0.00 in0.0 mm 0.00 in0.0 mm 0.52 in13.2 mm
12:45 PM 55.2°F12.9°C 53.5°F11.9°C 94% 3.1 mph S5.0 kmh S 4.5 mph7.2 kmh 28.01 in948.5 mb 0.00 in0.0 mm 0.00 in0.0 mm 0.52 in13.2 mm
12:50 PM 55.2°F12.9°C 53.5°F11.9°C 94% 3.8 mph S6.1 kmh S 5.4 mph8.7 kmh 28.01 in948.5 mb 0.00 in0.0 mm 0.00 in0.0 mm 0.52 in13.2 mm
12:55 PM 55.2°F12.9°C 53.5°F11.9°C 94% 2.2 mph S3.5 kmh S 5.4 mph8.7 kmh 28.01 in948.5 mb 0.00 in0.0 mm 0.00 in0.0 mm 0.52 in13.2 mm
01:00 PM 55.0°F12.8°C 53.4°F11.9°C 94% 3.1 mph S5.0 kmh S 5.4 mph8.7 kmh 28.01 in948.5 mb 0.00 in0.0 mm 0.00 in0.0 mm 0.52 in13.2 mm
01:05 PM 55.0°F12.8°C 53.4°F11.9°C 94% 3.8 mph S6.1 kmh S 6.9 mph11.1 kmh 28.01 in948.5 mb 0.00 in0.0 mm 0.00 in0.0 mm 0.52 in13.2 mm
01:10 PM 55.2°F12.9°C 53.5°F11.9°C 94% 4.5 mph S7.2 kmh S 6.9 mph11.1 kmh 28.02 in948.9 mb 0.00 in0.0 mm 0.00 in0.0 mm 0.52 in13.2 mm
01:15 PM 55.8°F13.2°C 54.1°F12.3°C 94% 1.6 mph S2.6 kmh S 6.0 mph9.7 kmh 28.02 in948.9 mb 0.00 in0.0 mm 0.00 in0.0 mm 0.52 in13.2 mm
01:20 PM 56.3°F13.5°C 54.6°F12.6°C 94% 2.2 mph S3.5 kmh S 6.0 mph9.7 kmh 28.02 in948.9 mb 0.00 in0.0 mm 0.00 in0.0 mm 0.52 in13.2 mm
01:25 PM 56.3°F13.5°C 54.6°F12.6°C 94% 1.6 mph S2.6 kmh S 6.9 mph11.1 kmh 28.02 in948.9 mb 0.00 in0.0 mm 0.00 in0.0 mm 0.52 in13.2 mm
01:30 PM 56.3°F13.5°C 54.6°F12.6°C 94% 3.8 mph S6.1 kmh S 6.9 mph11.1 kmh 28.02 in948.9 mb 0.00 in0.0 mm 0.00 in0.0 mm 0.52 in13.2 mm
01:35 PM 56.3°F13.5°C 54.6°F12.6°C 94% 1.6 mph S2.6 kmh S 5.4 mph8.7 kmh 28.03 in949.2 mb 0.00 in0.0 mm 0.00 in0.0 mm 0.52 in13.2 mm
01:40 PM 56.1°F13.4°C 54.4°F12.4°C 94% 2.2 mph S3.5 kmh S 5.4 mph8.7 kmh 28.03 in949.2 mb 0.00 in0.0 mm 0.00 in0.0 mm 0.52 in13.2 mm
01:45 PM 56.3°F13.5°C 54.6°F12.6°C 94% 3.1 mph S5.0 kmh S 5.4 mph8.7 kmh 28.03 in949.2 mb 0.00 in0.0 mm 0.00 in0.0 mm 0.52 in13.2 mm
01:50 PM 56.5°F13.6°C 54.8°F12.7°C 94% 0.7 mph S1.1 kmh S 5.4 mph8.7 kmh 28.03 in949.2 mb 0.00 in0.0 mm 0.00 in0.0 mm 0.52 in13.2 mm
01:55 PM 56.5°F13.6°C 54.8°F12.7°C 94% Calm Calm 3.1 mph5.0 kmh 28.04 in949.5 mb 0.00 in0.0 mm 0.00 in0.0 mm 0.52 in13.2 mm
02:00 PM 56.7°F13.7°C 55.0°F12.8°C 94% Calm Calm 3.1 mph5.0 kmh 28.04 in949.5 mb 0.00 in0.0 mm 0.00 in0.0 mm 0.52 in13.2 mm
02:05 PM 56.8°F13.8°C 55.1°F12.8°C 94% 2.2 mph S3.5 kmh S 3.8 mph6.1 kmh 28.04 in949.5 mb 0.00 in0.0 mm 0.00 in0.0 mm 0.52 in13.2 mm
02:10 PM 56.7°F13.7°C 55.0°F12.8°C 94% Calm Calm 4.5 mph7.2 kmh 28.04 in949.5 mb 0.00 in0.0 mm 0.00 in0.0 mm 0.52 in13.2 mm
02:15 PM 56.7°F13.7°C 55.0°F12.8°C 94% 3.1 mph S5.0 kmh S 4.5 mph7.2 kmh 28.05 in949.9 mb 0.00 in0.0 mm 0.00 in0.0 mm 0.52 in13.2 mm
02:20 PM 56.5°F13.6°C 54.8°F12.7°C 94% 0.7 mph S1.1 kmh S 4.5 mph7.2 kmh 28.07 in950.6 mb 0.00 in0.0 mm 0.00 in0.0 mm 0.52 in13.2 mm
02:25 PM 56.3°F13.5°C 54.6°F12.6°C 94% 1.6 mph S2.6 kmh S 5.4 mph8.7 kmh 28.06 in950.2 mb 0.00 in0.0 mm 0.00 in0.0 mm 0.52 in13.2 mm
02:30 PM 55.9°F13.3°C 54.2°F12.3°C 94% 1.6 mph S2.6 kmh S 6.0 mph9.7 kmh 28.07 in950.6 mb 0.00 in0.0 mm 0.00 in0.0 mm 0.52 in13.2 mm
02:35 PM 55.8°F13.2°C 54.1°F12.3°C 94% 0.7 mph S1.1 kmh S 6.0 mph9.7 kmh 28.07 in950.6 mb 0.00 in0.0 mm 0.00 in0.0 mm 0.52 in13.2 mm
02:40 PM 55.6°F13.1°C 53.9°F12.2°C 94% 0.7 mph S1.1 kmh S 5.4 mph8.7 kmh 28.07 in950.6 mb 0.01 in0.3 mm 0.12 in3.0 mm 0.53 in13.5 mm
02:45 PM 54.9°F12.7°C 53.2°F11.8°C 94% 1.6 mph S2.6 kmh S 5.4 mph8.7 kmh 28.08 in950.9 mb 0.01 in0.3 mm 0.00 in0.0 mm 0.53 in13.5 mm
02:50 PM 54.1°F12.3°C 52.5°F11.4°C 94% 1.6 mph S2.6 kmh S 5.4 mph8.7 kmh 28.09 in951.2 mb 0.01 in0.3 mm 0.00 in0.0 mm 0.53 in13.5 mm
02:55 PM 53.8°F12.1°C 52.1°F11.2°C 94% 3.1 mph S5.0 kmh S 5.4 mph8.7 kmh 28.09 in951.2 mb 0.02 in0.5 mm 0.12 in3.0 mm 0.54 in13.7 mm
03:00 PM 53.4°F11.9°C 51.7°F10.9°C 94% 0.7 mph S1.1 kmh S 3.8 mph6.1 kmh 28.09 in951.2 mb 0.05 in1.3 mm 0.03 in0.8 mm 0.57 in14.5 mm
03:05 PM 53.4°F11.9°C 51.7°F10.9°C 94% 3.8 mph S6.1 kmh S 6.0 mph9.7 kmh 28.10 in951.6 mb 0.05 in1.3 mm 0.00 in0.0 mm 0.57 in14.5 mm
03:10 PM 52.5°F11.4°C 50.8°F10.4°C 94% 1.6 mph S2.6 kmh S 6.0 mph9.7 kmh 28.10 in951.6 mb 0.07 in1.8 mm 0.24 in6.1 mm 0.59 in15.0 mm
03:15 PM 52.3°F11.3°C 50.7°F10.4°C 94% 1.6 mph S2.6 kmh S 4.5 mph7.2 kmh 28.11 in951.9 mb 0.09 in2.3 mm 0.24 in6.1 mm 0.61 in15.5 mm
03:20 PM 51.8°F11.0°C 50.1°F10.1°C 94% 1.6 mph S2.6 kmh S 4.5 mph7.2 kmh 28.12 in952.3 mb 0.13 in3.3 mm 0.48 in12.2 mm 0.65 in16.5 mm
03:25 PM 51.3°F10.7°C 49.6°F9.8°C 94% 1.6 mph S2.6 kmh S 4.5 mph7.2 kmh 28.12 in952.3 mb 0.14 in3.6 mm 0.12 in3.0 mm 0.66 in16.8 mm
03:30 PM 50.9°F10.5°C 49.2°F9.6°C 94% Calm Calm 6.9 mph11.1 kmh 28.13 in952.6 mb 0.17 in4.3 mm 0.36 in9.1 mm 0.69 in17.5 mm
03:35 PM 50.5°F10.3°C 48.9°F9.4°C 94% Calm Calm 6.9 mph11.1 kmh 28.13 in952.6 mb 0.17 in4.3 mm 0.00 in0.0 mm 0.69 in17.5 mm
03:40 PM 50.5°F10.3°C 48.9°F9.4°C 94% Calm Calm 3.8 mph6.1 kmh 28.14 in952.9 mb 0.15 in3.8 mm 0.00 in0.0 mm 0.69 in17.5 mm
03:45 PM 50.5°F10.3°C 48.9°F9.4°C 94% 3.1 mph S5.0 kmh S 3.8 mph6.1 kmh 28.14 in952.9 mb 0.15 in3.8 mm 0.00 in0.0 mm 0.69 in17.5 mm
03:50 PM 50.4°F10.2°C 48.7°F9.3°C 94% 4.5 mph S7.2 kmh S 6.0 mph9.7 kmh 28.15 in953.3 mb 0.17 in4.3 mm 0.24 in6.1 mm 0.70 in17.8 mm
03:55 PM 50.4°F10.2°C 48.7°F9.3°C 94% 4.5 mph S7.2 kmh S 6.0 mph9.7 kmh 28.15 in953.3 mb 0.15 in3.8 mm 0.00 in0.0 mm 0.70 in17.8 mm
04:00 PM 50.4°F10.2°C 48.7°F9.3°C 94% 2.2 mph S3.5 kmh S 5.4 mph8.7 kmh 28.16 in953.6 mb 0.13 in3.3 mm 0.00 in0.0 mm 0.70 in17.8 mm
04:05 PM 50.4°F10.2°C 48.7°F9.3°C 94% Calm Calm 5.4 mph8.7 kmh 28.16 in953.6 mb 0.14 in3.6 mm 0.12 in3.0 mm 0.71 in18.0 mm
04:10 PM 50.4°F10.2°C 48.7°F9.3°C 94% 0.7 mph S1.1 kmh S 3.1 mph5.0 kmh 28.16 in953.6 mb 0.12 in3.0 mm 0.00 in0.0 mm 0.71 in18.0 mm
04:15 PM 50.4°F10.2°C 48.7°F9.3°C 94% 0.7 mph S1.1 kmh S 3.1 mph5.0 kmh 28.16 in953.6 mb 0.09 in2.3 mm 0.00 in0.0 mm 0.71 in18.0 mm
04:20 PM 50.4°F10.2°C 48.7°F9.3°C 94% 3.1 mph S5.0 kmh S 3.8 mph6.1 kmh 28.18 in954.3 mb 0.05 in1.3 mm 0.00 in0.0 mm 0.71 in18.0 mm
04:25 PM 50.0°F10.0°C 48.3°F9.1°C 94% 3.1 mph S5.0 kmh S 5.4 mph8.7 kmh 28.18 in954.3 mb 0.05 in1.3 mm 0.00 in0.0 mm 0.71 in18.0 mm
04:30 PM 49.6°F9.8°C 48.0°F8.9°C 94% Calm Calm 9.2 mph14.8 kmh 28.19 in954.6 mb 0.02 in0.5 mm 0.00 in0.0 mm 0.71 in18.0 mm
04:35 PM 49.6°F9.8°C 48.0°F8.9°C 94% 3.1 mph S5.0 kmh S 9.2 mph14.8 kmh 28.19 in954.6 mb 0.02 in0.5 mm 0.00 in0.0 mm 0.71 in18.0 mm
04:40 PM 49.5°F9.7°C 47.8°F8.8°C 94% 2.2 mph S3.5 kmh S 8.3 mph13.4 kmh 28.20 in955.0 mb 0.02 in0.5 mm 0.00 in0.0 mm 0.71 in18.0 mm
04:45 PM 49.5°F9.7°C 47.8°F8.8°C 94% 3.8 mph S6.1 kmh S 9.8 mph15.8 kmh 28.20 in955.0 mb 0.02 in0.5 mm 0.00 in0.0 mm 0.71 in18.0 mm
04:50 PM 49.3°F9.6°C 47.6°F8.7°C 94% 1.6 mph S2.6 kmh S 9.8 mph15.8 kmh 28.21 in955.3 mb 0.01 in0.3 mm 0.00 in0.0 mm 0.71 in18.0 mm
04:55 PM 49.1°F9.5°C 47.5°F8.6°C 94% 2.2 mph S3.5 kmh S 9.2 mph14.8 kmh 28.21 in955.3 mb 0.01 in0.3 mm 0.00 in0.0 mm 0.71 in18.0 mm
05:00 PM 48.9°F9.4°C 47.3°F8.5°C 94% 3.8 mph S6.1 kmh S 9.2 mph14.8 kmh 28.22 in955.6 mb 0.01 in0.3 mm 0.00 in0.0 mm 0.71 in18.0 mm
05:05 PM 48.9°F9.4°C 47.3°F8.5°C 94% 6.0 mph S9.7 kmh S 9.2 mph14.8 kmh 28.23 in956.0 mb 0.00 in0.0 mm 0.00 in0.0 mm 0.71 in18.0 mm
05:10 PM 48.7°F9.3°C 47.1°F8.4°C 94% 3.1 mph S5.0 kmh S 8.3 mph13.4 kmh 28.24 in956.3 mb 0.00 in0.0 mm 0.00 in0.0 mm 0.71 in18.0 mm
05:15 PM 48.6°F9.2°C 46.9°F8.3°C 94% 10.7 mph S17.2 kmh S 12.1 mph19.5 kmh 28.24 in956.3 mb 0.00 in0.0 mm 0.00 in0.0 mm 0.71 in18.0 mm
05:20 PM 48.4°F9.1°C 46.7°F8.2°C 94% 9.8 mph S15.8 kmh S 16.8 mph27.0 kmh 28.25 in956.7 mb 0.00 in0.0 mm 0.00 in0.0 mm 0.71 in18.0 mm
05:25 PM 48.4°F9.1°C 46.7°F8.2°C 94% 9.2 mph S14.8 kmh S 16.8 mph27.0 kmh 28.25 in956.7 mb 0.00 in0.0 mm 0.00 in0.0 mm 0.71 in18.0 mm
05:30 PM 48.2°F9.0°C 46.6°F8.1°C 94% 6.0 mph S9.7 kmh S 15.9 mph25.6 kmh 28.26 in957.0 mb 0.00 in0.0 mm 0.00 in0.0 mm 0.71 in18.0 mm
05:35 PM 48.4°F9.1°C 46.7°F8.2°C 94% 9.8 mph S15.8 kmh S 17.4 mph28.0 kmh 28.26 in957.0 mb 0.00 in0.0 mm 0.00 in0.0 mm 0.71 in18.0 mm
05:40 PM 48.4°F9.1°C 46.7°F8.2°C 94% 10.7 mph SSE17.2 kmh SSE 22.1 mph35.6 kmh 28.27 in957.3 mb 0.00 in0.0 mm 0.00 in0.0 mm 0.71 in18.0 mm
05:45 PM 48.6°F9.2°C 46.9°F8.3°C 94% 9.8 mph SSE15.8 kmh SSE 22.8 mph36.7 kmh 28.27 in957.3 mb 0.00 in0.0 mm 0.00 in0.0 mm 0.71 in18.0 mm
05:50 PM 48.4°F9.1°C 46.7°F8.2°C 94% 6.9 mph S11.1 kmh S 22.8 mph36.7 kmh 28.28 in957.7 mb 0.00 in0.0 mm 0.00 in0.0 mm 0.71 in18.0 mm
05:55 PM 48.4°F9.1°C 46.7°F8.2°C 94% 9.2 mph SSW14.8 kmh SSW 16.8 mph27.0 kmh 28.28 in957.7 mb 0.00 in0.0 mm 0.00 in0.0 mm 0.71 in18.0 mm
06:00 PM 48.2°F9.0°C 46.6°F8.1°C 94% 3.1 mph SSW5.0 kmh SSW 19.7 mph31.7 kmh 28.29 in958.0 mb 0.00 in0.0 mm 0.00 in0.0 mm 0.71 in18.0 mm
06:05 PM 48.0°F8.9°C 46.4°F8.0°C 94% 8.3 mph SW13.4 kmh SW 19.7 mph31.7 kmh 28.29 in958.0 mb 0.00 in0.0 mm 0.00 in0.0 mm 0.71 in18.0 mm
06:10 PM 47.7°F8.7°C 46.0°F7.8°C 94% 9.8 mph WSW15.8 kmh WSW 19.0 mph30.6 kmh 28.30 in958.3 mb 0.00 in0.0 mm 0.00 in0.0 mm 0.71 in18.0 mm
06:15 PM 47.7°F8.7°C 46.0°F7.8°C 94% 14.5 mph WSW23.3 kmh WSW 24.4 mph39.3 kmh 28.30 in958.3 mb 0.00 in0.0 mm 0.00 in0.0 mm 0.71 in18.0 mm
06:20 PM 47.5°F8.6°C 45.8°F7.7°C 94% 13.0 mph SW20.9 kmh SW 24.4 mph39.3 kmh 28.31 in958.7 mb 0.00 in0.0 mm 0.00 in0.0 mm 0.71 in18.0 mm
06:25 PM 47.5°F8.6°C 45.8°F7.7°C 94% 9.8 mph SW15.8 kmh SW 24.4 mph39.3 kmh 28.31 in958.7 mb 0.00 in0.0 mm 0.00 in0.0 mm 0.71 in18.0 mm
06:30 PM 47.1°F8.4°C 45.5°F7.5°C 94% 8.3 mph S13.4 kmh S 21.3 mph34.3 kmh 28.31 in958.7 mb 0.00 in0.0 mm 0.00 in0.0 mm 0.71 in18.0 mm
06:35 PM 47.3°F8.5°C 45.7°F7.6°C 94% 9.2 mph ESE14.8 kmh ESE 21.3 mph34.3 kmh 28.33 in959.4 mb 0.00 in0.0 mm 0.00 in0.0 mm 0.71 in18.0 mm
06:40 PM 47.3°F8.5°C 45.7°F7.6°C 94% 13.0 mph E20.9 kmh E 28.9 mph46.5 kmh 28.33 in959.4 mb 0.00 in0.0 mm 0.00 in0.0 mm 0.71 in18.0 mm
06:45 PM 47.3°F8.5°C 45.7°F7.6°C 94% 9.8 mph ESE15.8 kmh ESE 28.9 mph46.5 kmh 28.34 in959.7 mb 0.00 in0.0 mm 0.00 in0.0 mm 0.71 in18.0 mm
06:50 PM 47.1°F8.4°C 45.5°F7.5°C 94% 9.8 mph SE15.8 kmh SE 24.4 mph39.3 kmh 28.34 in959.7 mb 0.00 in0.0 mm 0.00 in0.0 mm 0.71 in18.0 mm
06:55 PM 47.1°F8.4°C 45.5°F7.5°C 94% 8.3 mph SE13.4 kmh SE 24.4 mph39.3 kmh 28.34 in959.7 mb 0.00 in0.0 mm 0.00 in0.0 mm 0.71 in18.0 mm
07:00 PM 46.8°F8.2°C 45.1°F7.3°C 94% 7.6 mph SSE12.2 kmh SSE 20.6 mph33.2 kmh 28.35 in960.0 mb 0.00 in0.0 mm 0.00 in0.0 mm 0.71 in18.0 mm
07:05 PM 46.8°F8.2°C 45.1°F7.3°C 94% 10.7 mph S17.2 kmh S 13.6 mph21.9 kmh 28.35 in960.0 mb 0.00 in0.0 mm 0.00 in0.0 mm 0.71 in18.0 mm
07:10 PM 46.6°F8.1°C 44.9°F7.2°C 94% 8.3 mph SSE13.4 kmh SSE 13.0 mph20.9 kmh 28.35 in960.0 mb 0.00 in0.0 mm 0.00 in0.0 mm 0.71 in18.0 mm
07:15 PM 46.6°F8.1°C 44.9°F7.2°C 94% 6.9 mph SE11.1 kmh SE 12.1 mph19.5 kmh 28.36 in960.4 mb 0.00 in0.0 mm 0.00 in0.0 mm 0.71 in18.0 mm
07:20 PM 46.4°F8.0°C 44.8°F7.1°C 94% 6.9 mph SE11.1 kmh SE 14.5 mph23.3 kmh 28.36 in960.4 mb 0.00 in0.0 mm 0.00 in0.0 mm 0.71 in18.0 mm
07:25 PM 46.4°F8.0°C 44.8°F7.1°C 94% 9.8 mph SE15.8 kmh SE 19.7 mph31.7 kmh 28.36 in960.4 mb 0.00 in0.0 mm 0.00 in0.0 mm 0.71 in18.0 mm
07:30 PM 46.6°F8.1°C 44.9°F7.2°C 94% 5.4 mph S8.7 kmh S 24.4 mph39.3 kmh 28.37 in960.7 mb 0.00 in0.0 mm 0.00 in0.0 mm 0.71 in18.0 mm
07:35 PM 46.8°F8.2°C 45.1°F7.3°C 94% 6.9 mph S11.1 kmh S 24.4 mph39.3 kmh 28.37 in960.7 mb 0.00 in0.0 mm 0.00 in0.0 mm 0.71 in18.0 mm
07:40 PM 46.8°F8.2°C 45.1°F7.3°C 94% 5.4 mph S8.7 kmh S 12.1 mph19.5 kmh 28.38 in961.1 mb 0.00 in0.0 mm 0.00 in0.0 mm 0.71 in18.0 mm
07:45 PM 46.8°F8.2°C 45.1°F7.3°C 94% 15.2 mph SSW24.5 kmh SSW 17.4 mph28.0 kmh 28.38 in961.1 mb 0.00 in0.0 mm 0.00 in0.0 mm 0.71 in18.0 mm
07:50 PM 46.9°F8.3°C 45.3°F7.4°C 94% 6.9 mph SSW11.1 kmh SSW 17.4 mph28.0 kmh 28.38 in961.1 mb 0.00 in0.0 mm 0.00 in0.0 mm 0.71 in18.0 mm
07:55 PM 46.9°F8.3°C 45.3°F7.4°C 94% 5.4 mph S8.7 kmh S 14.5 mph23.3 kmh 28.38 in961.1 mb 0.00 in0.0 mm 0.00 in0.0 mm 0.71 in18.0 mm
08:00 PM 46.8°F8.2°C 45.1°F7.3°C 94% 5.4 mph SSE8.7 kmh SSE 12.1 mph19.5 kmh 28.38 in961.1 mb 0.00 in0.0 mm 0.00 in0.0 mm 0.71 in18.0 mm
08:05 PM 46.8°F8.2°C 45.1°F7.3°C 94% 7.6 mph SE12.2 kmh SE 13.6 mph21.9 kmh 28.39 in961.4 mb 0.00 in0.0 mm 0.00 in0.0 mm 0.71 in18.0 mm
08:10 PM 46.8°F8.2°C 45.1°F7.3°C 94% 3.8 mph SE6.1 kmh SE 13.6 mph21.9 kmh 28.39 in961.4 mb 0.00 in0.0 mm 0.00 in0.0 mm 0.71 in18.0 mm
08:15 PM 46.6°F8.1°C 44.9°F7.2°C 94% 6.0 mph SE9.7 kmh SE 13.6 mph21.9 kmh 28.40 in961.7 mb 0.00 in0.0 mm 0.00 in0.0 mm 0.71 in18.0 mm
08:20 PM 46.4°F8.0°C 44.8°F7.1°C 94% 4.5 mph SE7.2 kmh SE 13.0 mph20.9 kmh 28.40 in961.7 mb 0.00 in0.0 mm 0.00 in0.0 mm 0.71 in18.0 mm
08:25 PM 46.4°F8.0°C 44.8°F7.1°C 94% 5.4 mph SE8.7 kmh SE 12.1 mph19.5 kmh 28.40 in961.7 mb 0.00 in0.0 mm 0.00 in0.0 mm 0.71 in18.0 mm
08:30 PM 46.2°F7.9°C 44.6°F7.0°C 94% 10.7 mph SE17.2 kmh SE 16.8 mph27.0 kmh 28.40 in961.7 mb 0.00 in0.0 mm 0.00 in0.0 mm 0.71 in18.0 mm
08:35 PM 46.0°F7.8°C 44.4°F6.9°C 94% 6.0 mph SE9.7 kmh SE 20.6 mph33.2 kmh 28.40 in961.7 mb 0.00 in0.0 mm 0.00 in0.0 mm 0.71 in18.0 mm
08:40 PM 46.0°F7.8°C 44.4°F6.9°C 94% 6.0 mph SE9.7 kmh SE 20.6 mph33.2 kmh 28.40 in961.7 mb 0.00 in0.0 mm 0.00 in0.0 mm 0.71 in18.0 mm
08:45 PM 45.7°F7.6°C 44.1°F6.7°C 94% 9.2 mph SE14.8 kmh SE 15.9 mph25.6 kmh 28.41 in962.1 mb 0.00 in0.0 mm 0.00 in0.0 mm 0.71 in18.0 mm
08:50 PM 45.7°F7.6°C 44.1°F6.7°C 94% 8.3 mph SE13.4 kmh SE 14.5 mph23.3 kmh 28.42 in962.4 mb 0.00 in0.0 mm 0.00 in0.0 mm 0.71 in18.0 mm
08:55 PM 45.7°F7.6°C 44.1°F6.7°C 94% 10.7 mph SE17.2 kmh SE 17.4 mph28.0 kmh 28.42 in962.4 mb 0.00 in0.0 mm 0.00 in0.0 mm 0.71 in18.0 mm
09:00 PM 45.7°F7.6°C 44.1°F6.7°C 94% 6.0 mph SE9.7 kmh SE 18.3 mph29.5 kmh 28.43 in962.8 mb 0.00 in0.0 mm 0.00 in0.0 mm 0.71 in18.0 mm
09:05 PM 45.7°F7.6°C 44.1°F6.7°C 94% 3.8 mph SE6.1 kmh SE 18.3 mph29.5 kmh 28.43 in962.8 mb 0.00 in0.0 mm 0.00 in0.0 mm 0.71 in18.0 mm
09:10 PM 45.3°F7.4°C 43.7°F6.5°C 94% 5.4 mph SE8.7 kmh SE 12.1 mph19.5 kmh 28.43 in962.8 mb 0.00 in0.0 mm 0.00 in0.0 mm 0.71 in18.0 mm
09:15 PM 45.1°F7.3°C 43.5°F6.4°C 94% 1.6 mph SE2.6 kmh SE 12.1 mph19.5 kmh 28.43 in962.8 mb 0.00 in0.0 mm 0.00 in0.0 mm 0.71 in18.0 mm
09:20 PM 44.8°F7.1°C 43.2°F6.2°C 94% 8.3 mph SE13.4 kmh SE 11.4 mph18.3 kmh 28.44 in963.1 mb 0.00 in0.0 mm 0.00 in0.0 mm 0.71 in18.0 mm
09:25 PM 44.6°F7.0°C 43.0°F6.1°C 94% 7.6 mph SE12.2 kmh SE 12.1 mph19.5 kmh 28.45 in963.4 mb 0.00 in0.0 mm 0.00 in0.0 mm 0.71 in18.0 mm
09:30 PM 44.6°F7.0°C 43.0°F6.1°C 94% 3.1 mph SE5.0 kmh SE 12.1 mph19.5 kmh 28.45 in963.4 mb 0.00 in0.0 mm 0.00 in0.0 mm 0.71 in18.0 mm
09:35 PM 44.6°F7.0°C 43.0°F6.1°C 94% 9.2 mph SE14.8 kmh SE 12.1 mph19.5 kmh 28.45 in963.4 mb 0.00 in0.0 mm 0.00 in0.0 mm 0.71 in18.0 mm
09:40 PM 44.6°F7.0°C 43.0°F6.1°C 94% 10.7 mph SE17.2 kmh SE 19.0 mph30.6 kmh 28.45 in963.4 mb 0.00 in0.0 mm 0.00 in0.0 mm 0.71 in18.0 mm
09:45 PM 44.6°F7.0°C 43.0°F6.1°C 94% 7.6 mph SSE12.2 kmh SSE 19.0 mph30.6 kmh 28.45 in963.4 mb 0.00 in0.0 mm 0.00 in0.0 mm 0.71 in18.0 mm
09:50 PM 44.6°F7.0°C 43.0°F6.1°C 94% 6.9 mph S11.1 kmh S 16.8 mph27.0 kmh 28.46 in963.8 mb 0.00 in0.0 mm 0.00 in0.0 mm 0.71 in18.0 mm
09:55 PM 44.6°F7.0°C 43.0°F6.1°C 94% 5.4 mph S8.7 kmh S 15.2 mph24.5 kmh 28.46 in963.8 mb 0.00 in0.0 mm 0.00 in0.0 mm 0.71 in18.0 mm
10:00 PM 44.4°F6.9°C 42.8°F6.0°C 94% 9.8 mph S15.8 kmh S 15.2 mph24.5 kmh 28.47 in964.1 mb 0.00 in0.0 mm 0.00 in0.0 mm 0.71 in18.0 mm
10:05 PM 44.6°F7.0°C 43.0°F6.1°C 94% 6.9 mph S11.1 kmh S 15.9 mph25.6 kmh 28.46 in963.8 mb 0.00 in0.0 mm 0.00 in0.0 mm 0.71 in18.0 mm
10:10 PM 44.4°F6.9°C 42.8°F6.0°C 94% 4.5 mph S7.2 kmh S 15.9 mph25.6 kmh 28.47 in964.1 mb 0.00 in0.0 mm 0.00 in0.0 mm 0.71 in18.0 mm
10:15 PM 44.2°F6.8°C 42.6°F5.9°C 94% 10.7 mph S17.2 kmh S 16.8 mph27.0 kmh 28.47 in964.1 mb 0.00 in0.0 mm 0.00 in0.0 mm 0.71 in18.0 mm
10:20 PM 44.2°F6.8°C 42.6°F5.9°C 94% 11.4 mph SSW18.3 kmh SSW 16.8 mph27.0 kmh 28.47 in964.1 mb 0.00 in0.0 mm 0.00 in0.0 mm 0.71 in18.0 mm
10:25 PM 44.1°F6.7°C 42.4°F5.8°C 94% 4.5 mph SSW7.2 kmh SSW 16.8 mph27.0 kmh 28.47 in964.1 mb 0.00 in0.0 mm 0.00 in0.0 mm 0.71 in18.0 mm
10:30 PM 44.2°F6.8°C 42.6°F5.9°C 94% 6.0 mph S9.7 kmh S 14.5 mph23.3 kmh 28.48 in964.4 mb 0.00 in0.0 mm 0.00 in0.0 mm 0.71 in18.0 mm
10:35 PM 44.2°F6.8°C 42.6°F5.9°C 94% 3.8 mph SSW6.1 kmh SSW 13.6 mph21.9 kmh 28.47 in964.1 mb 0.00 in0.0 mm 0.00 in0.0 mm 0.71 in18.0 mm
10:40 PM 44.2°F6.8°C 42.6°F5.9°C 94% 3.8 mph SSW6.1 kmh SSW 15.9 mph25.6 kmh 28.48 in964.4 mb 0.00 in0.0 mm 0.00 in0.0 mm 0.71 in18.0 mm
10:45 PM 44.4°F6.9°C 42.8°F6.0°C 94% 10.7 mph SSW17.2 kmh SSW 22.1 mph35.6 kmh 28.47 in964.1 mb 0.00 in0.0 mm 0.00 in0.0 mm 0.71 in18.0 mm
10:50 PM 44.4°F6.9°C 42.8°F6.0°C 94% 6.9 mph S11.1 kmh S 22.1 mph35.6 kmh 28.48 in964.4 mb 0.00 in0.0 mm 0.00 in0.0 mm 0.71 in18.0 mm
10:55 PM 44.4°F6.9°C 42.8°F6.0°C 94% 4.5 mph SE7.2 kmh SE 18.3 mph29.5 kmh 28.48 in964.4 mb 0.00 in0.0 mm 0.00 in0.0 mm 0.71 in18.0 mm
11:00 PM 44.6°F7.0°C 43.0°F6.1°C 94% 6.9 mph ENE11.1 kmh ENE 16.8 mph27.0 kmh 28.48 in964.4 mb 0.00 in0.0 mm 0.00 in0.0 mm 0.71 in18.0 mm
11:05 PM 44.8°F7.1°C 43.2°F6.2°C 94% 8.3 mph E13.4 kmh E 16.8 mph27.0 kmh 28.48 in964.4 mb 0.00 in0.0 mm 0.00 in0.0 mm 0.71 in18.0 mm
11:10 PM 45.1°F7.3°C 43.5°F6.4°C 94% 9.8 mph E15.8 kmh E 22.1 mph35.6 kmh 28.49 in964.8 mb 0.00 in0.0 mm 0.00 in0.0 mm 0.71 in18.0 mm
11:15 PM 45.3°F7.4°C 43.7°F6.5°C 94% 7.6 mph NNE12.2 kmh NNE 25.1 mph40.4 kmh 28.49 in964.8 mb 0.00 in0.0 mm 0.00 in0.0 mm 0.71 in18.0 mm
11:20 PM 45.3°F7.4°C 43.7°F6.5°C 94% 10.7 mph WNW17.2 kmh WNW 25.1 mph40.4 kmh 28.49 in964.8 mb 0.00 in0.0 mm 0.00 in0.0 mm 0.71 in18.0 mm
11:25 PM 45.3°F7.4°C 43.7°F6.5°C 94% 6.0 mph W9.7 kmh W 24.4 mph39.3 kmh 28.49 in964.8 mb 0.00 in0.0 mm 0.00 in0.0 mm 0.71 in18.0 mm
11:30 PM 45.1°F7.3°C 43.5°F6.4°C 94% 6.0 mph WSW9.7 kmh WSW 19.7 mph31.7 kmh 28.50 in965.1 mb 0.00 in0.0 mm 0.00 in0.0 mm 0.71 in18.0 mm
11:35 PM 45.1°F7.3°C 43.5°F6.4°C 94% 12.1 mph SSW19.5 kmh SSW 24.4 mph39.3 kmh 28.50 in965.1 mb 0.00 in0.0 mm 0.00 in0.0 mm 0.71 in18.0 mm
11:40 PM 45.1°F7.3°C 43.5°F6.4°C 94% 6.9 mph SSE11.1 kmh SSE 24.4 mph39.3 kmh 28.51 in965.5 mb 0.00 in0.0 mm 0.00 in0.0 mm 0.71 in18.0 mm
11:50 PM 45.3°F7.4°C 43.7°F6.5°C 94% 9.2 mph S14.8 kmh S 32.0 mph51.5 kmh 28.51 in965.5 mb 0.00 in0.0 mm 0.00 in0.0 mm 0.71 in18.0 mm
11:55 PM 45.3°F7.4°C 43.7°F6.5°C 94% 6.9 mph SSW11.1 kmh SSW 20.6 mph33.2 kmh 28.50 in965.1 mb 0.00 in0.0 mm 0.00 in0.0 mm 0.71 in18.0 mm